sensor_id;sensor_type;location;lat;lon;timestamp;P1;durP1;ratioP1;P2;durP2;ratioP2
26113;SDS011;13966;48.828;9.064;2024-03-02T00:01:14;22.90;;;12.52;;
26113;SDS011;13966;48.828;9.064;2024-03-02T00:03:40;21.90;;;13.20;;
26113;SDS011;13966;48.828;9.064;2024-03-02T00:06:08;19.15;;;11.35;;
26113;SDS011;13966;48.828;9.064;2024-03-02T00:08:35;18.75;;;11.55;;
26113;SDS011;13966;48.828;9.064;2024-03-02T00:11:01;23.58;;;11.38;;
26113;SDS011;13966;48.828;9.064;2024-03-02T00:13:27;18.95;;;11.10;;
26113;SDS011;13966;48.828;9.064;2024-03-02T00:15:56;20.73;;;13.10;;
26113;SDS011;13966;48.828;9.064;2024-03-02T00:18:32;18.77;;;9.63;;
26113;SDS011;13966;48.828;9.064;2024-03-02T00:20:58;14.95;;;9.10;;
26113;SDS011;13966;48.828;9.064;2024-03-02T00:23:27;15.85;;;10.25;;
26113;SDS011;13966;48.828;9.064;2024-03-02T00:25:54;15.55;;;9.25;;
26113;SDS011;13966;48.828;9.064;2024-03-02T00:28:24;14.93;;;9.50;;
26113;SDS011;13966;48.828;9.064;2024-03-02T00:31:07;16.83;;;10.52;;
26113;SDS011;13966;48.828;9.064;2024-03-02T00:33:34;16.20;;;10.20;;
26113;SDS011;13966;48.828;9.064;2024-03-02T00:36:01;17.17;;;9.27;;
26113;SDS011;13966;48.828;9.064;2024-03-02T00:38:28;18.08;;;10.20;;
26113;SDS011;13966;48.828;9.064;2024-03-02T00:40:54;15.70;;;8.90;;
26113;SDS011;13966;48.828;9.064;2024-03-02T00:46:00;14.13;;;9.50;;
26113;SDS011;13966;48.828;9.064;2024-03-02T00:48:26;15.80;;;9.38;;
26113;SDS011;13966;48.828;9.064;2024-03-02T00:50:52;15.27;;;9.25;;
26113;SDS011;13966;48.828;9.064;2024-03-02T00:53:19;15.25;;;9.13;;
26113;SDS011;13966;48.828;9.064;2024-03-02T00:55:49;17.50;;;9.25;;
26113;SDS011;13966;48.828;9.064;2024-03-02T00:58:15;12.52;;;8.45;;
26113;SDS011;13966;48.828;9.064;2024-03-02T01:00:41;13.40;;;9.02;;
26113;SDS011;13966;48.828;9.064;2024-03-02T01:03:07;16.33;;;9.50;;
26113;SDS011;13966;48.828;9.064;2024-03-02T01:05:35;16.45;;;9.02;;
26113;SDS011;13966;48.828;9.064;2024-03-02T01:08:01;13.10;;;8.25;;
26113;SDS011;13966;48.828;9.064;2024-03-02T01:10:27;15.10;;;9.18;;
26113;SDS011;13966;48.828;9.064;2024-03-02T01:12:53;13.80;;;8.80;;
26113;SDS011;13966;48.828;9.064;2024-03-02T01:15:19;13.48;;;9.40;;
26113;SDS011;13966;48.828;9.064;2024-03-02T01:17:45;17.05;;;10.10;;
26113;SDS011;13966;48.828;9.064;2024-03-02T01:20:11;14.48;;;9.20;;
26113;SDS011;13966;48.828;9.064;2024-03-02T01:22:37;14.63;;;9.35;;
26113;SDS011;13966;48.828;9.064;2024-03-02T01:25:03;13.43;;;9.40;;
26113;SDS011;13966;48.828;9.064;2024-03-02T01:27:29;11.80;;;7.97;;
26113;SDS011;13966;48.828;9.064;2024-03-02T01:29:55;13.32;;;9.27;;
26113;SDS011;13966;48.828;9.064;2024-03-02T01:32:21;16.60;;;9.52;;
26113;SDS011;13966;48.828;9.064;2024-03-02T01:34:47;15.73;;;10.07;;
26113;SDS011;13966;48.828;9.064;2024-03-02T01:37:13;15.55;;;9.77;;
26113;SDS011;13966;48.828;9.064;2024-03-02T01:39:39;14.48;;;9.75;;
26113;SDS011;13966;48.828;9.064;2024-03-02T01:42:05;14.95;;;9.43;;
26113;SDS011;13966;48.828;9.064;2024-03-02T01:44:31;15.85;;;9.23;;
26113;SDS011;13966;48.828;9.064;2024-03-02T01:46:57;17.23;;;10.43;;
26113;SDS011;13966;48.828;9.064;2024-03-02T01:49:23;16.48;;;11.15;;
26113;SDS011;13966;48.828;9.064;2024-03-02T01:51:49;17.45;;;11.45;;
26113;SDS011;13966;48.828;9.064;2024-03-02T01:54:15;17.10;;;11.32;;
26113;SDS011;13966;48.828;9.064;2024-03-02T01:56:41;18.75;;;10.98;;
26113;SDS011;13966;48.828;9.064;2024-03-02T01:59:07;14.93;;;10.00;;
26113;SDS011;13966;48.828;9.064;2024-03-02T02:01:33;19.38;;;11.07;;
26113;SDS011;13966;48.828;9.064;2024-03-02T02:03:59;18.42;;;11.45;;
26113;SDS011;13966;48.828;9.064;2024-03-02T02:06:25;20.70;;;12.35;;
26113;SDS011;13966;48.828;9.064;2024-03-02T02:08:51;18.08;;;11.73;;
26113;SDS011;13966;48.828;9.064;2024-03-02T02:11:17;18.98;;;11.63;;
26113;SDS011;13966;48.828;9.064;2024-03-02T02:13:43;15.90;;;11.05;;
26113;SDS011;13966;48.828;9.064;2024-03-02T02:16:09;18.20;;;11.00;;
26113;SDS011;13966;48.828;9.064;2024-03-02T02:18:35;17.42;;;10.98;;
26113;SDS011;13966;48.828;9.064;2024-03-02T02:21:02;19.33;;;11.25;;
26113;SDS011;13966;48.828;9.064;2024-03-02T02:23:28;17.58;;;11.20;;
26113;SDS011;13966;48.828;9.064;2024-03-02T02:25:54;20.30;;;12.07;;
26113;SDS011;13966;48.828;9.064;2024-03-02T02:28:20;18.38;;;10.88;;
26113;SDS011;13966;48.828;9.064;2024-03-02T02:30:46;21.83;;;11.35;;
26113;SDS011;13966;48.828;9.064;2024-03-02T02:33:12;15.27;;;10.63;;
26113;SDS011;13966;48.828;9.064;2024-03-02T02:35:38;17.67;;;11.13;;
26113;SDS011;13966;48.828;9.064;2024-03-02T02:38:04;19.02;;;11.15;;
26113;SDS011;13966;48.828;9.064;2024-03-02T02:40:31;17.77;;;11.07;;
26113;SDS011;13966;48.828;9.064;2024-03-02T02:42:58;16.13;;;10.88;;
26113;SDS011;13966;48.828;9.064;2024-03-02T02:45:24;18.33;;;11.35;;
26113;SDS011;13966;48.828;9.064;2024-03-02T02:47:50;18.88;;;11.68;;
26113;SDS011;13966;48.828;9.064;2024-03-02T02:50:16;19.13;;;11.32;;
26113;SDS011;13966;48.828;9.064;2024-03-02T02:52:42;16.77;;;11.15;;
26113;SDS011;13966;48.828;9.064;2024-03-02T02:55:09;20.10;;;11.40;;
26113;SDS011;13966;48.828;9.064;2024-03-02T02:57:36;20.13;;;10.55;;
26113;SDS011;13966;48.828;9.064;2024-03-02T03:00:07;19.63;;;10.82;;
26113;SDS011;13966;48.828;9.064;2024-03-02T03:02:39;21.42;;;10.85;;
26113;SDS011;13966;48.828;9.064;2024-03-02T03:05:06;17.52;;;11.27;;
26113;SDS011;13966;48.828;9.064;2024-03-02T03:07:33;19.27;;;11.55;;
26113;SDS011;13966;48.828;9.064;2024-03-02T03:10:02;18.90;;;11.70;;
26113;SDS011;13966;48.828;9.064;2024-03-02T03:12:29;22.38;;;12.60;;
26113;SDS011;13966;48.828;9.064;2024-03-02T03:14:56;17.10;;;11.30;;
26113;SDS011;13966;48.828;9.064;2024-03-02T03:17:22;19.10;;;11.35;;
26113;SDS011;13966;48.828;9.064;2024-03-02T03:19:48;19.65;;;12.18;;
26113;SDS011;13966;48.828;9.064;2024-03-02T03:22:14;20.23;;;12.00;;
26113;SDS011;13966;48.828;9.064;2024-03-02T03:24:40;21.65;;;13.15;;
26113;SDS011;13966;48.828;9.064;2024-03-02T03:27:06;21.92;;;13.57;;
26113;SDS011;13966;48.828;9.064;2024-03-02T03:29:32;21.92;;;13.20;;
26113;SDS011;13966;48.828;9.064;2024-03-02T03:31:58;23.58;;;13.70;;
26113;SDS011;13966;48.828;9.064;2024-03-02T03:34:24;22.48;;;13.88;;
26113;SDS011;13966;48.828;9.064;2024-03-02T03:36:50;24.95;;;14.40;;
26113;SDS011;13966;48.828;9.064;2024-03-02T03:39:16;22.75;;;14.43;;
26113;SDS011;13966;48.828;9.064;2024-03-02T03:41:42;25.75;;;14.88;;
26113;SDS011;13966;48.828;9.064;2024-03-02T03:44:08;20.45;;;13.45;;
26113;SDS011;13966;48.828;9.064;2024-03-02T03:46:34;22.42;;;13.43;;
26113;SDS011;13966;48.828;9.064;2024-03-02T03:49:00;21.70;;;13.93;;
26113;SDS011;13966;48.828;9.064;2024-03-02T03:51:26;22.02;;;13.40;;
26113;SDS011;13966;48.828;9.064;2024-03-02T03:53:52;23.08;;;13.30;;
26113;SDS011;13966;48.828;9.064;2024-03-02T03:56:18;24.48;;;13.60;;
26113;SDS011;13966;48.828;9.064;2024-03-02T03:58:44;19.80;;;12.93;;
26113;SDS011;13966;48.828;9.064;2024-03-02T04:01:10;24.73;;;14.75;;
26113;SDS011;13966;48.828;9.064;2024-03-02T04:03:37;24.52;;;14.00;;
26113;SDS011;13966;48.828;9.064;2024-03-02T04:06:03;22.05;;;14.20;;
26113;SDS011;13966;48.828;9.064;2024-03-02T04:08:29;22.15;;;13.52;;
26113;SDS011;13966;48.828;9.064;2024-03-02T04:10:55;22.23;;;13.10;;
26113;SDS011;13966;48.828;9.064;2024-03-02T04:13:21;23.27;;;14.07;;
26113;SDS011;13966;48.828;9.064;2024-03-02T04:15:47;21.02;;;12.60;;
26113;SDS011;13966;48.828;9.064;2024-03-02T04:18:13;19.55;;;12.35;;
26113;SDS011;13966;48.828;9.064;2024-03-02T04:20:39;22.20;;;13.45;;
26113;SDS011;13966;48.828;9.064;2024-03-02T04:23:05;20.40;;;12.55;;
26113;SDS011;13966;48.828;9.064;2024-03-02T04:25:31;20.05;;;12.35;;
26113;SDS011;13966;48.828;9.064;2024-03-02T04:27:57;20.20;;;12.65;;
26113;SDS011;13966;48.828;9.064;2024-03-02T04:30:23;18.88;;;12.50;;
26113;SDS011;13966;48.828;9.064;2024-03-02T04:32:50;22.35;;;12.60;;
26113;SDS011;13966;48.828;9.064;2024-03-02T04:35:16;21.58;;;13.43;;
26113;SDS011;13966;48.828;9.064;2024-03-02T04:37:42;21.45;;;12.52;;
26113;SDS011;13966;48.828;9.064;2024-03-02T04:40:08;21.20;;;12.55;;
26113;SDS011;13966;48.828;9.064;2024-03-02T04:42:35;17.75;;;11.32;;
26113;SDS011;13966;48.828;9.064;2024-03-02T04:45:01;21.88;;;13.70;;
26113;SDS011;13966;48.828;9.064;2024-03-02T04:47:28;18.02;;;11.73;;
26113;SDS011;13966;48.828;9.064;2024-03-02T04:49:54;18.60;;;11.82;;
26113;SDS011;13966;48.828;9.064;2024-03-02T04:52:20;20.02;;;11.68;;
26113;SDS011;13966;48.828;9.064;2024-03-02T04:54:46;18.00;;;11.15;;
26113;SDS011;13966;48.828;9.064;2024-03-02T04:57:30;16.92;;;10.98;;
26113;SDS011;13966;48.828;9.064;2024-03-02T04:59:57;18.80;;;10.35;;
26113;SDS011;13966;48.828;9.064;2024-03-02T05:02:23;17.83;;;11.27;;
26113;SDS011;13966;48.828;9.064;2024-03-02T05:04:49;15.88;;;10.57;;
26113;SDS011;13966;48.828;9.064;2024-03-02T05:07:15;18.10;;;11.02;;
26113;SDS011;13966;48.828;9.064;2024-03-02T05:09:41;16.98;;;10.85;;
26113;SDS011;13966;48.828;9.064;2024-03-02T05:12:07;17.98;;;11.82;;
26113;SDS011;13966;48.828;9.064;2024-03-02T05:14:36;17.20;;;11.45;;
26113;SDS011;13966;48.828;9.064;2024-03-02T05:17:03;18.45;;;11.93;;
26113;SDS011;13966;48.828;9.064;2024-03-02T05:19:29;18.27;;;12.27;;
26113;SDS011;13966;48.828;9.064;2024-03-02T05:21:55;19.60;;;11.85;;
26113;SDS011;13966;48.828;9.064;2024-03-02T05:24:21;16.90;;;11.43;;
26113;SDS011;13966;48.828;9.064;2024-03-02T05:26:47;19.73;;;12.10;;
26113;SDS011;13966;48.828;9.064;2024-03-02T05:29:14;17.95;;;11.63;;
26113;SDS011;13966;48.828;9.064;2024-03-02T05:31:40;21.50;;;12.50;;
26113;SDS011;13966;48.828;9.064;2024-03-02T05:34:06;19.38;;;11.77;;
26113;SDS011;13966;48.828;9.064;2024-03-02T05:36:32;20.75;;;12.05;;
26113;SDS011;13966;48.828;9.064;2024-03-02T05:38:58;19.20;;;12.32;;
26113;SDS011;13966;48.828;9.064;2024-03-02T05:41:24;21.30;;;13.32;;
26113;SDS011;13966;48.828;9.064;2024-03-02T05:43:50;20.50;;;12.05;;
26113;SDS011;13966;48.828;9.064;2024-03-02T05:46:16;19.55;;;11.95;;
26113;SDS011;13966;48.828;9.064;2024-03-02T05:48:42;19.35;;;12.20;;
26113;SDS011;13966;48.828;9.064;2024-03-02T05:51:08;21.90;;;13.45;;
26113;SDS011;13966;48.828;9.064;2024-03-02T05:53:34;20.42;;;12.45;;
26113;SDS011;13966;48.828;9.064;2024-03-02T05:56:03;20.88;;;12.55;;
26113;SDS011;13966;48.828;9.064;2024-03-02T05:58:29;20.05;;;12.43;;
26113;SDS011;13966;48.828;9.064;2024-03-02T06:01:14;20.60;;;12.02;;
26113;SDS011;13966;48.828;9.064;2024-03-02T06:03:40;20.40;;;12.57;;
26113;SDS011;13966;48.828;9.064;2024-03-02T06:06:06;20.45;;;12.30;;
26113;SDS011;13966;48.828;9.064;2024-03-02T06:08:32;16.35;;;10.82;;
26113;SDS011;13966;48.828;9.064;2024-03-02T06:10:58;16.42;;;10.57;;
26113;SDS011;13966;48.828;9.064;2024-03-02T06:13:24;19.35;;;12.18;;
26113;SDS011;13966;48.828;9.064;2024-03-02T06:15:51;22.25;;;11.88;;
26113;SDS011;13966;48.828;9.064;2024-03-02T06:18:17;21.13;;;12.13;;
26113;SDS011;13966;48.828;9.064;2024-03-02T06:20:43;21.08;;;11.68;;
26113;SDS011;13966;48.828;9.064;2024-03-02T06:23:09;21.27;;;13.15;;
26113;SDS011;13966;48.828;9.064;2024-03-02T06:25:35;19.13;;;12.00;;
26113;SDS011;13966;48.828;9.064;2024-03-02T06:28:01;19.98;;;11.82;;
26113;SDS011;13966;48.828;9.064;2024-03-02T06:30:27;20.65;;;11.93;;
26113;SDS011;13966;48.828;9.064;2024-03-02T06:32:53;20.08;;;11.80;;
26113;SDS011;13966;48.828;9.064;2024-03-02T06:35:19;18.30;;;11.27;;
26113;SDS011;13966;48.828;9.064;2024-03-02T06:37:45;17.00;;;11.02;;
26113;SDS011;13966;48.828;9.064;2024-03-02T06:40:11;20.02;;;11.88;;
26113;SDS011;13966;48.828;9.064;2024-03-02T06:42:37;19.77;;;11.60;;
26113;SDS011;13966;48.828;9.064;2024-03-02T06:45:03;18.77;;;11.25;;
26113;SDS011;13966;48.828;9.064;2024-03-02T06:47:29;20.33;;;12.85;;
26113;SDS011;13966;48.828;9.064;2024-03-02T06:49:55;17.35;;;11.35;;
26113;SDS011;13966;48.828;9.064;2024-03-02T06:52:23;18.80;;;10.75;;
26113;SDS011;13966;48.828;9.064;2024-03-02T06:54:49;18.75;;;11.63;;
26113;SDS011;13966;48.828;9.064;2024-03-02T06:57:15;20.70;;;12.48;;
26113;SDS011;13966;48.828;9.064;2024-03-02T06:59:42;19.70;;;12.18;;
26113;SDS011;13966;48.828;9.064;2024-03-02T07:02:08;20.05;;;12.45;;
26113;SDS011;13966;48.828;9.064;2024-03-02T07:04:34;22.23;;;13.32;;
26113;SDS011;13966;48.828;9.064;2024-03-02T07:07:00;22.55;;;14.10;;
26113;SDS011;13966;48.828;9.064;2024-03-02T07:09:26;21.27;;;13.50;;
26113;SDS011;13966;48.828;9.064;2024-03-02T07:11:52;23.77;;;13.50;;
26113;SDS011;13966;48.828;9.064;2024-03-02T07:14:18;22.58;;;13.75;;
26113;SDS011;13966;48.828;9.064;2024-03-02T07:16:44;18.92;;;12.90;;
26113;SDS011;13966;48.828;9.064;2024-03-02T07:19:10;21.73;;;13.40;;
26113;SDS011;13966;48.828;9.064;2024-03-02T07:21:36;23.55;;;12.98;;
26113;SDS011;13966;48.828;9.064;2024-03-02T07:24:02;17.55;;;11.98;;
26113;SDS011;13966;48.828;9.064;2024-03-02T07:26:28;17.40;;;11.32;;
26113;SDS011;13966;48.828;9.064;2024-03-02T07:28:56;18.20;;;11.50;;
26113;SDS011;13966;48.828;9.064;2024-03-02T07:31:22;20.73;;;12.02;;
26113;SDS011;13966;48.828;9.064;2024-03-02T07:33:48;17.45;;;11.63;;
26113;SDS011;13966;48.828;9.064;2024-03-02T07:36:14;20.80;;;12.48;;
26113;SDS011;13966;48.828;9.064;2024-03-02T07:38:40;19.70;;;11.65;;
26113;SDS011;13966;48.828;9.064;2024-03-02T07:41:07;17.77;;;10.95;;
26113;SDS011;13966;48.828;9.064;2024-03-02T07:43:33;18.00;;;11.45;;
26113;SDS011;13966;48.828;9.064;2024-03-02T07:45:59;17.33;;;10.45;;
26113;SDS011;13966;48.828;9.064;2024-03-02T07:48:25;17.25;;;11.68;;
26113;SDS011;13966;48.828;9.064;2024-03-02T07:50:52;17.98;;;11.10;;
26113;SDS011;13966;48.828;9.064;2024-03-02T07:53:18;15.43;;;10.30;;
26113;SDS011;13966;48.828;9.064;2024-03-02T07:55:44;15.88;;;10.52;;
26113;SDS011;13966;48.828;9.064;2024-03-02T07:58:10;14.57;;;10.20;;
26113;SDS011;13966;48.828;9.064;2024-03-02T08:00:36;15.90;;;9.82;;
26113;SDS011;13966;48.828;9.064;2024-03-02T08:03:04;14.68;;;9.82;;
26113;SDS011;13966;48.828;9.064;2024-03-02T08:05:30;16.15;;;9.23;;
26113;SDS011;13966;48.828;9.064;2024-03-02T08:07:56;17.17;;;8.70;;
26113;SDS011;13966;48.828;9.064;2024-03-02T08:10:22;12.20;;;8.73;;
26113;SDS011;13966;48.828;9.064;2024-03-02T08:12:48;13.80;;;8.70;;
26113;SDS011;13966;48.828;9.064;2024-03-02T08:15:14;14.88;;;8.68;;
26113;SDS011;13966;48.828;9.064;2024-03-02T08:17:40;13.55;;;8.27;;
26113;SDS011;13966;48.828;9.064;2024-03-02T08:20:10;14.45;;;9.02;;
26113;SDS011;13966;48.828;9.064;2024-03-02T08:22:36;12.32;;;7.82;;
26113;SDS011;13966;48.828;9.064;2024-03-02T08:25:03;16.00;;;8.40;;
26113;SDS011;13966;48.828;9.064;2024-03-02T08:27:29;14.50;;;9.30;;
26113;SDS011;13966;48.828;9.064;2024-03-02T08:29:57;11.85;;;8.25;;
26113;SDS011;13966;48.828;9.064;2024-03-02T08:32:23;15.98;;;9.10;;
26113;SDS011;13966;48.828;9.064;2024-03-02T08:34:49;13.77;;;7.80;;
26113;SDS011;13966;48.828;9.064;2024-03-02T08:37:15;9.95;;;7.13;;
26113;SDS011;13966;48.828;9.064;2024-03-02T08:39:41;12.40;;;7.53;;
26113;SDS011;13966;48.828;9.064;2024-03-02T08:42:07;10.63;;;6.90;;
26113;SDS011;13966;48.828;9.064;2024-03-02T08:44:33;14.75;;;8.02;;
26113;SDS011;13966;48.828;9.064;2024-03-02T08:46:59;13.27;;;7.80;;
26113;SDS011;13966;48.828;9.064;2024-03-02T08:49:25;12.05;;;7.22;;
26113;SDS011;13966;48.828;9.064;2024-03-02T08:51:51;11.35;;;7.53;;
26113;SDS011;13966;48.828;9.064;2024-03-02T08:54:23;12.85;;;6.80;;
26113;SDS011;13966;48.828;9.064;2024-03-02T08:56:49;8.43;;;5.97;;
26113;SDS011;13966;48.828;9.064;2024-03-02T08:59:15;11.77;;;6.30;;
26113;SDS011;13966;48.828;9.064;2024-03-02T09:01:41;9.85;;;6.32;;
26113;SDS011;13966;48.828;9.064;2024-03-02T09:04:08;9.23;;;5.47;;
26113;SDS011;13966;48.828;9.064;2024-03-02T09:06:34;7.95;;;5.68;;
26113;SDS011;13966;48.828;9.064;2024-03-02T09:09:00;6.95;;;5.13;;
26113;SDS011;13966;48.828;9.064;2024-03-02T09:11:26;10.07;;;5.45;;
26113;SDS011;13966;48.828;9.064;2024-03-02T09:13:52;8.18;;;5.70;;
26113;SDS011;13966;48.828;9.064;2024-03-02T09:16:19;8.55;;;5.35;;
26113;SDS011;13966;48.828;9.064;2024-03-02T09:18:45;9.25;;;5.38;;
26113;SDS011;13966;48.828;9.064;2024-03-02T09:21:12;7.93;;;5.03;;
26113;SDS011;13966;48.828;9.064;2024-03-02T09:23:38;8.43;;;5.53;;
26113;SDS011;13966;48.828;9.064;2024-03-02T09:26:05;8.45;;;5.18;;
26113;SDS011;13966;48.828;9.064;2024-03-02T09:28:31;7.28;;;4.60;;
26113;SDS011;13966;48.828;9.064;2024-03-02T09:30:57;8.00;;;4.97;;
26113;SDS011;13966;48.828;9.064;2024-03-02T09:33:23;6.38;;;4.53;;
26113;SDS011;13966;48.828;9.064;2024-03-02T09:35:49;6.18;;;4.32;;
26113;SDS011;13966;48.828;9.064;2024-03-02T09:38:15;6.72;;;3.90;;
26113;SDS011;13966;48.828;9.064;2024-03-02T09:40:41;6.07;;;4.30;;
26113;SDS011;13966;48.828;9.064;2024-03-02T09:43:08;4.82;;;3.90;;
26113;SDS011;13966;48.828;9.064;2024-03-02T09:45:34;5.93;;;3.78;;
26113;SDS011;13966;48.828;9.064;2024-03-02T09:48:00;5.15;;;3.50;;
26113;SDS011;13966;48.828;9.064;2024-03-02T09:50:26;4.82;;;3.22;;
26113;SDS011;13966;48.828;9.064;2024-03-02T09:52:52;3.03;;;2.65;;
26113;SDS011;13966;48.828;9.064;2024-03-02T09:55:19;3.15;;;2.30;;
26113;SDS011;13966;48.828;9.064;2024-03-02T09:57:46;3.30;;;2.28;;
26113;SDS011;13966;48.828;9.064;2024-03-02T10:00:13;3.97;;;2.30;;
26113;SDS011;13966;48.828;9.064;2024-03-02T10:02:40;4.70;;;2.50;;
26113;SDS011;13966;48.828;9.064;2024-03-02T10:05:07;2.47;;;1.98;;
26113;SDS011;13966;48.828;9.064;2024-03-02T10:07:33;3.88;;;2.10;;
26113;SDS011;13966;48.828;9.064;2024-03-02T10:10:00;2.50;;;1.92;;
26113;SDS011;13966;48.828;9.064;2024-03-02T10:12:37;1.95;;;1.67;;
26113;SDS011;13966;48.828;9.064;2024-03-02T10:15:03;2.80;;;1.73;;
26113;SDS011;13966;48.828;9.064;2024-03-02T10:17:31;5.10;;;2.05;;
26113;SDS011;13966;48.828;9.064;2024-03-02T10:19:57;2.75;;;1.83;;
26113;SDS011;13966;48.828;9.064;2024-03-02T10:22:23;2.40;;;1.45;;
26113;SDS011;13966;48.828;9.064;2024-03-02T10:24:49;2.38;;;1.80;;
26113;SDS011;13966;48.828;9.064;2024-03-02T10:27:16;2.80;;;1.55;;
26113;SDS011;13966;48.828;9.064;2024-03-02T10:29:45;2.15;;;1.50;;
26113;SDS011;13966;48.828;9.064;2024-03-02T10:32:12;1.50;;;1.10;;
26113;SDS011;13966;48.828;9.064;2024-03-02T10:34:42;3.70;;;1.65;;
26113;SDS011;13966;48.828;9.064;2024-03-02T10:37:08;1.83;;;1.63;;
26113;SDS011;13966;48.828;9.064;2024-03-02T10:39:34;2.55;;;1.95;;
26113;SDS011;13966;48.828;9.064;2024-03-02T10:42:01;5.03;;;2.22;;
26113;SDS011;13966;48.828;9.064;2024-03-02T10:44:30;4.13;;;1.90;;
26113;SDS011;13966;48.828;9.064;2024-03-02T10:46:58;7.80;;;2.20;;
26113;SDS011;13966;48.828;9.064;2024-03-02T10:49:26;3.08;;;1.83;;
26113;SDS011;13966;48.828;9.064;2024-03-02T10:51:52;3.42;;;1.48;;
26113;SDS011;13966;48.828;9.064;2024-03-02T10:54:18;2.50;;;1.40;;
26113;SDS011;13966;48.828;9.064;2024-03-02T10:56:50;1.20;;;0.65;;
26113;SDS011;13966;48.828;9.064;2024-03-02T10:59:21;2.47;;;0.80;;
26113;SDS011;13966;48.828;9.064;2024-03-02T11:01:50;1.33;;;1.10;;
26113;SDS011;13966;48.828;9.064;2024-03-02T11:04:17;1.30;;;0.90;;
26113;SDS011;13966;48.828;9.064;2024-03-02T11:06:45;1.00;;;0.60;;
26113;SDS011;13966;48.828;9.064;2024-03-02T11:09:13;1.25;;;1.10;;
26113;SDS011;13966;48.828;9.064;2024-03-02T11:11:40;1.05;;;0.95;;
26113;SDS011;13966;48.828;9.064;2024-03-02T11:14:07;1.80;;;1.25;;
26113;SDS011;13966;48.828;9.064;2024-03-02T11:16:36;2.67;;;1.13;;
26113;SDS011;13966;48.828;9.064;2024-03-02T11:19:04;1.60;;;1.30;;
26113;SDS011;13966;48.828;9.064;2024-03-02T11:21:31;9.48;;;2.20;;
26113;SDS011;13966;48.828;9.064;2024-03-02T11:23:58;2.00;;;1.20;;
26113;SDS011;13966;48.828;9.064;2024-03-02T11:26:24;2.60;;;1.65;;
26113;SDS011;13966;48.828;9.064;2024-03-02T11:28:50;2.15;;;1.45;;
26113;SDS011;13966;48.828;9.064;2024-03-02T11:31:16;3.38;;;1.45;;
26113;SDS011;13966;48.828;9.064;2024-03-02T11:33:42;3.30;;;1.50;;
26113;SDS011;13966;48.828;9.064;2024-03-02T11:36:08;4.55;;;1.70;;
26113;SDS011;13966;48.828;9.064;2024-03-02T11:38:34;3.25;;;1.40;;
26113;SDS011;13966;48.828;9.064;2024-03-02T11:41:01;2.42;;;1.42;;
26113;SDS011;13966;48.828;9.064;2024-03-02T11:43:28;3.42;;;1.67;;
26113;SDS011;13966;48.828;9.064;2024-03-02T11:45:58;2.85;;;1.52;;
26113;SDS011;13966;48.828;9.064;2024-03-02T11:48:24;2.25;;;1.73;;
26113;SDS011;13966;48.828;9.064;2024-03-02T11:50:51;3.90;;;1.58;;
26113;SDS011;13966;48.828;9.064;2024-03-02T11:53:17;3.22;;;1.83;;
26113;SDS011;13966;48.828;9.064;2024-03-02T11:55:43;2.25;;;1.58;;
26113;SDS011;13966;48.828;9.064;2024-03-02T11:58:13;2.13;;;1.48;;
26113;SDS011;13966;48.828;9.064;2024-03-02T12:00:39;1.58;;;1.48;;
26113;SDS011;13966;48.828;9.064;2024-03-02T12:03:05;1.08;;;0.98;;
26113;SDS011;13966;48.828;9.064;2024-03-02T12:05:32;2.20;;;1.23;;
26113;SDS011;13966;48.828;9.064;2024-03-02T12:07:58;1.20;;;1.00;;
26113;SDS011;13966;48.828;9.064;2024-03-02T12:10:25;1.48;;;1.10;;
26113;SDS011;13966;48.828;9.064;2024-03-02T12:13:00;1.75;;;0.88;;
26113;SDS011;13966;48.828;9.064;2024-03-02T12:15:27;1.27;;;0.68;;
26113;SDS011;13966;48.828;9.064;2024-03-02T12:17:57;0.40;;;0.40;;
26113;SDS011;13966;48.828;9.064;2024-03-02T12:20:23;2.70;;;0.77;;
26113;SDS011;13966;48.828;9.064;2024-03-02T12:22:53;1.30;;;0.90;;
26113;SDS011;13966;48.828;9.064;2024-03-02T12:25:19;0.85;;;0.80;;
26113;SDS011;13966;48.828;9.064;2024-03-02T12:27:46;1.25;;;0.80;;
26113;SDS011;13966;48.828;9.064;2024-03-02T12:30:13;1.27;;;0.90;;
26113;SDS011;13966;48.828;9.064;2024-03-02T12:32:39;0.52;;;0.50;;
26113;SDS011;13966;48.828;9.064;2024-03-02T12:35:06;0.98;;;0.80;;
26113;SDS011;13966;48.828;9.064;2024-03-02T12:37:32;0.85;;;0.50;;
26113;SDS011;13966;48.828;9.064;2024-03-02T12:39:58;0.93;;;0.50;;
26113;SDS011;13966;48.828;9.064;2024-03-02T12:42:24;0.45;;;0.43;;
26113;SDS011;13966;48.828;9.064;2024-03-02T12:44:53;1.95;;;0.52;;
26113;SDS011;13966;48.828;9.064;2024-03-02T12:47:20;1.80;;;0.60;;
26113;SDS011;13966;48.828;9.064;2024-03-02T12:49:46;0.73;;;0.40;;
26113;SDS011;13966;48.828;9.064;2024-03-02T12:52:12;1.25;;;0.65;;
26113;SDS011;13966;48.828;9.064;2024-03-02T12:54:39;0.60;;;0.50;;
26113;SDS011;13966;48.828;9.064;2024-03-02T12:57:05;0.40;;;0.30;;
26113;SDS011;13966;48.828;9.064;2024-03-02T12:59:31;0.65;;;0.50;;
26113;SDS011;13966;48.828;9.064;2024-03-02T13:01:57;0.30;;;0.30;;
26113;SDS011;13966;48.828;9.064;2024-03-02T13:04:26;0.65;;;0.35;;
26113;SDS011;13966;48.828;9.064;2024-03-02T13:06:53;0.73;;;0.43;;
26113;SDS011;13966;48.828;9.064;2024-03-02T13:09:21;2.05;;;0.50;;
26113;SDS011;13966;48.828;9.064;2024-03-02T13:11:47;0.60;;;0.40;;
26113;SDS011;13966;48.828;9.064;2024-03-02T13:14:13;0.40;;;0.40;;
26113;SDS011;13966;48.828;9.064;2024-03-02T13:16:42;0.52;;;0.47;;
26113;SDS011;13966;48.828;9.064;2024-03-02T13:19:11;1.45;;;0.40;;
26113;SDS011;13966;48.828;9.064;2024-03-02T13:21:37;0.45;;;0.40;;
26113;SDS011;13966;48.828;9.064;2024-03-02T13:24:04;0.65;;;0.50;;
26113;SDS011;13966;48.828;9.064;2024-03-02T13:26:30;2.10;;;0.70;;
26113;SDS011;13966;48.828;9.064;2024-03-02T13:28:56;0.47;;;0.47;;
26113;SDS011;13966;48.828;9.064;2024-03-02T13:31:22;1.38;;;0.47;;
26113;SDS011;13966;48.828;9.064;2024-03-02T13:33:48;0.77;;;0.40;;
26113;SDS011;13966;48.828;9.064;2024-03-02T13:36:14;0.55;;;0.40;;
26113;SDS011;13966;48.828;9.064;2024-03-02T13:38:40;0.30;;;0.30;;
26113;SDS011;13966;48.828;9.064;2024-03-02T13:41:06;0.50;;;0.50;;
26113;SDS011;13966;48.828;9.064;2024-03-02T13:43:32;1.08;;;0.43;;
26113;SDS011;13966;48.828;9.064;2024-03-02T13:46:00;0.57;;;0.50;;
26113;SDS011;13966;48.828;9.064;2024-03-02T13:48:26;0.60;;;0.50;;
26113;SDS011;13966;48.828;9.064;2024-03-02T13:50:52;1.50;;;0.60;;
26113;SDS011;13966;48.828;9.064;2024-03-02T13:53:18;0.95;;;0.80;;
26113;SDS011;13966;48.828;9.064;2024-03-02T13:55:44;0.80;;;0.57;;
26113;SDS011;13966;48.828;9.064;2024-03-02T13:58:10;1.38;;;0.77;;
26113;SDS011;13966;48.828;9.064;2024-03-02T14:00:37;0.60;;;0.60;;
26113;SDS011;13966;48.828;9.064;2024-03-02T14:03:04;1.10;;;0.80;;
26113;SDS011;13966;48.828;9.064;2024-03-02T14:05:30;1.63;;;0.98;;
26113;SDS011;13966;48.828;9.064;2024-03-02T14:07:56;3.22;;;1.05;;
26113;SDS011;13966;48.828;9.064;2024-03-02T14:10:22;4.93;;;1.23;;
26113;SDS011;13966;48.828;9.064;2024-03-02T14:12:48;0.93;;;0.60;;
26113;SDS011;13966;48.828;9.064;2024-03-02T14:15:14;1.13;;;0.85;;
26113;SDS011;13966;48.828;9.064;2024-03-02T14:17:40;1.20;;;0.80;;
26113;SDS011;13966;48.828;9.064;2024-03-02T14:20:07;1.40;;;1.05;;
26113;SDS011;13966;48.828;9.064;2024-03-02T14:22:36;0.90;;;0.90;;
26113;SDS011;13966;48.828;9.064;2024-03-02T14:25:03;2.75;;;1.00;;
26113;SDS011;13966;48.828;9.064;2024-03-02T14:27:29;1.42;;;1.00;;
26113;SDS011;13966;48.828;9.064;2024-03-02T14:29:55;2.95;;;1.60;;
26113;SDS011;13966;48.828;9.064;2024-03-02T14:32:21;2.25;;;1.25;;